Time;durP1;ratioP1;P1;durP2;ratioP2;P2;SDS_P1;SDS_P2;PMS_P1;PMS_P2;Temp;Humidity;BMP_temperature;BMP_pressure;BME280_temperature;BME280_humidity;BME280_pressure;Samples;Min_cycle;Max_cycle;Signal;HPM_P1;HPM_P2
2021/03/07 00:01:09;;;;;;;60.90;31.52;;;102.80;1484.80;;;;;;5094521;28;20046;-59
2021/03/07 00:03:35;;;;;;;63.72;33.35;;;102.80;1484.80;;;;;;5076703;28;20043;-59
2021/03/07 00:06:00;;;;;;;62.53;32.35;;;102.70;1510.40;;;;;;5095560;28;20017;-60
2021/03/07 00:08:26;;;;;;;65.15;34.85;;;102.70;1510.40;;;;;;5095713;28;20028;-61
2021/03/07 00:10:52;;;;;;;61.92;33.75;;;102.70;1510.40;;;;;;5095418;28;20099;-61
2021/03/07 00:13:17;;;;;;;69.10;34.05;;;102.70;1510.40;;;;;;5095838;28;20028;-60
2021/03/07 00:15:43;;;;;;;68.03;33.67;;;102.70;1536.00;;;;;;5095236;28;20485;-61
2021/03/07 00:18:09;;;;;;;61.53;32.88;;;102.50;1536.00;;;;;;5095501;28;20512;-59
2021/03/07 00:20:34;;;;;;;65.18;33.20;;;102.50;1536.00;;;;;;5094901;28;20031;-60
2021/03/07 00:23:00;;;;;;;59.53;31.48;;;102.50;1561.60;;;;;;5096007;28;20028;-60
2021/03/07 00:25:26;;;;;;;60.60;32.28;;;102.50;1536.00;;;;;;5095471;28;20067;-60
2021/03/07 00:27:52;;;;;;;56.05;30.90;;;102.50;1536.00;;;;;;5095307;28;20065;-60
2021/03/07 00:30:18;;;;;;;56.30;33.10;;;102.60;1510.40;;;;;;5090633;28;20044;-61
2021/03/07 00:32:45;;;;;;;60.67;31.67;;;102.50;1510.40;;;;;;5093570;28;20493;-61
2021/03/07 00:35:12;;;;;;;59.58;30.50;;;102.40;1536.00;;;;;;5099314;28;20023;-65
2021/03/07 00:37:38;;;;;;;56.25;29.55;;;77.70;1536.00;;;;;;5098356;28;20417;-63
2021/03/07 00:40:06;;;;;;;56.95;28.60;;;77.70;1561.60;;;;;;5097836;28;20457;-73
2021/03/07 00:42:32;;;;;;;53.30;27.48;;;77.70;1561.60;;;;;;5097290;28;20548;-63
2021/03/07 00:44:57;;;;;;;48.53;26.00;;;77.70;1561.60;;;;;;5098274;28;20024;-61
2021/03/07 00:47:23;;;;;;;51.80;25.25;;;77.60;1561.60;;;;;;5096421;28;20036;-59
2021/03/07 00:49:49;;;;;;;48.97;25.85;;;77.70;1536.00;;;;;;5093612;28;20027;-60
2021/03/07 00:52:15;;;;;;;50.72;27.33;;;77.70;1536.00;;;;;;5094070;28;20501;-60
2021/03/07 00:54:40;;;;;;;54.25;28.40;;;77.60;1536.00;;;;;;5093345;28;20129;-60
2021/03/07 00:57:06;;;;;;;56.40;29.60;;;77.50;1561.60;;;;;;5091421;28;20024;-60
2021/03/07 00:59:32;;;;;;;54.28;29.90;;;77.50;1587.20;;;;;;5091467;28;20028;-60
2021/03/07 01:01:57;;;;;;;58.65;31.90;;;77.60;1561.60;;;;;;5089039;28;20155;-60
2021/03/07 01:04:23;;;;;;;54.13;29.90;;;77.60;1561.60;;;;;;5093616;28;20028;-60
2021/03/07 01:06:49;;;;;;;57.67;30.67;;;77.60;1561.60;;;;;;5093707;28;20028;-59
2021/03/07 01:09:14;;;;;;;50.22;28.05;;;77.60;1561.60;;;;;;5093339;28;20567;-59
2021/03/07 01:11:40;;;;;;;50.63;28.13;;;77.60;1536.00;;;;;;5093276;28;20028;-60
2021/03/07 01:14:06;;;;;;;50.10;27.60;;;77.70;1536.00;;;;;;5093070;28;20058;-60
2021/03/07 01:16:33;;;;;;;46.28;25.08;;;77.70;1536.00;;;;;;5093054;28;20036;-60
2021/03/07 01:18:58;;;;;;;45.33;25.77;;;77.70;1536.00;;;;;;5092957;28;20069;-60
2021/03/07 01:21:24;;;;;;;42.72;23.02;;;77.60;1536.00;;;;;;5092923;28;20020;-60
2021/03/07 01:23:50;;;;;;;38.38;23.00;;;77.60;1536.00;;;;;;5092562;28;20533;-60
2021/03/07 01:26:15;;;;;;;43.50;23.25;;;77.60;1536.00;;;;;;5082996;28;20032;-60
2021/03/07 01:28:41;;;;;;;37.78;22.02;;;77.70;1510.40;;;;;;5081518;28;20493;-60
2021/03/07 01:31:07;;;;;;;35.85;21.13;;;77.70;1484.80;;;;;;5073222;28;20017;-61
2021/03/07 01:33:33;;;;;;;41.15;23.08;;;102.40;1484.80;;;;;;5075104;28;20025;-60
2021/03/07 01:36:02;;;;;;;42.40;23.98;;;77.70;1484.80;;;;;;5073394;28;20378;-61
2021/03/07 01:38:29;;;;;;;49.63;25.70;;;77.60;1510.40;;;;;;5073867;28;20063;-63
2021/03/07 01:40:55;;;;;;;46.90;24.30;;;77.60;1510.40;;;;;;5073374;28;20021;-63
2021/03/07 01:43:22;;;;;;;50.35;26.88;;;77.60;1484.80;;;;;;5073760;28;20074;-63
2021/03/07 01:45:48;;;;;;;44.28;23.27;;;77.60;1484.80;;;;;;5073007;28;20020;-63
2021/03/07 01:48:15;;;;;;;47.40;25.20;;;77.70;1484.80;;;;;;5072839;28;20024;-65
2021/03/07 01:50:43;;;;;;;45.97;25.38;;;77.60;1484.80;;;;;;5072957;28;20028;-63
2021/03/07 01:53:10;;;;;;;47.22;24.90;;;77.60;1484.80;;;;;;5072850;28;20029;-63
2021/03/07 01:55:38;;;;;;;53.33;28.40;;;77.60;1484.80;;;;;;5089146;28;20040;-63
2021/03/07 01:58:22;;;;;;;55.55;27.70;;;77.40;1510.40;;;;;;5092534;28;20056;-63
2021/03/07 02:00:48;;;;;;;51.85;28.27;;;77.50;1484.80;;;;;;5092534;28;20036;-63
2021/03/07 02:03:15;;;;;;;57.97;29.77;;;77.50;1484.80;;;;;;5092822;28;20035;-63
2021/03/07 02:05:41;;;;;;;58.15;29.10;;;77.50;1484.80;;;;;;5096940;28;20095;-67
2021/03/07 02:08:07;;;;;;;52.17;27.75;;;77.50;1484.80;;;;;;5097407;28;20492;-65
2021/03/07 02:10:46;;;;;;;55.28;27.65;;;77.40;1510.40;;;;;;5096698;28;20027;-66
2021/03/07 02:13:15;;;;;;;49.15;26.48;;;77.40;1510.40;;;;;;5096984;28;20478;-63
2021/03/07 02:15:44;;;;;;;48.53;25.48;;;77.50;1484.80;;;;;;5097382;28;20549;-64
2021/03/07 02:18:11;;;;;;;49.15;25.33;;;77.60;1484.80;;;;;;5097131;28;20028;-68
2021/03/07 02:20:48;;;;;;;45.85;24.25;;;77.50;1484.80;;;;;;5092612;28;20440;-65
2021/03/07 02:23:21;;;;;;;48.45;23.90;;;77.50;1484.80;;;;;;5092911;28;20020;-64
2021/03/07 02:25:49;;;;;;;41.80;23.38;;;77.40;1484.80;;;;;;5092759;28;20111;-63
2021/03/07 02:28:15;;;;;;;45.13;23.00;;;77.40;1484.80;;;;;;5093020;28;20024;-62
2021/03/07 02:30:41;;;;;;;42.92;23.77;;;77.40;1510.40;;;;;;5092828;28;20401;-64
2021/03/07 02:33:25;;;;;;;43.67;24.85;;;77.40;1510.40;;;;;;5092695;28;20106;-62
2021/03/07 02:36:01;;;;;;;44.33;23.33;;;77.40;1536.00;;;;;;5093190;28;20149;-65
2021/03/07 02:38:30;;;;;;;47.38;24.10;;;77.40;1561.60;;;;;;5092647;28;20024;-65
2021/03/07 02:40:58;;;;;;;49.17;24.48;;;77.40;1561.60;;;;;;5092715;28;20099;-67
2021/03/07 02:43:26;;;;;;;43.38;24.60;;;77.40;1587.20;;;;;;5091129;28;20026;-67
2021/03/07 02:45:55;;;;;;;40.67;23.88;;;77.40;1561.60;;;;;;5092834;28;20060;-63
2021/03/07 02:48:25;;;;;;;42.47;24.20;;;77.30;1587.20;;;;;;5078379;28;20031;-65
2021/03/07 02:50:52;;;;;;;39.67;22.85;;;77.30;1561.60;;;;;;5092201;28;20074;-62
2021/03/07 02:53:23;;;;;;;41.97;23.98;;;77.20;1587.20;;;;;;5092195;28;20079;-62
2021/03/07 02:56:13;;;;;;;40.40;23.33;;;77.30;1587.20;;;;;;5091643;28;20466;-62
2021/03/07 02:58:40;;;;;;;39.13;21.83;;;77.20;1612.80;;;;;;4990243;28;20034;-62
2021/03/07 03:01:10;;;;;;;37.33;21.67;;;77.30;1612.80;;;;;;4990151;28;20038;-63
2021/03/07 03:03:40;;;;;;;38.95;21.63;;;77.20;1612.80;;;;;;4990137;28;20033;-62
2021/03/07 03:06:08;;;;;;;40.15;21.65;;;77.20;1612.80;;;;;;4992293;28;20588;-63
2021/03/07 03:08:36;;;;;;;42.75;22.05;;;77.10;1612.80;;;;;;4994213;28;20121;-63
2021/03/07 03:11:03;;;;;;;37.25;21.13;;;77.10;1638.40;;;;;;4994225;28;20493;-63
2021/03/07 03:13:32;;;;;;;44.58;22.95;;;77.10;1612.80;;;;;;4994143;28;20023;-63
2021/03/07 03:15:59;;;;;;;42.85;22.02;;;77.10;1638.40;;;;;;4993871;28;20596;-63
2021/03/07 03:18:28;;;;;;;37.25;20.65;;;77.00;1638.40;;;;;;4993639;28;20089;-63
2021/03/07 03:20:56;;;;;;;;;;;76.90;1664.00;;;;;;4994417;28;20037;-62
2021/03/07 03:23:24;;;;;;;34.58;18.88;;;77.00;1664.00;;;;;;4993975;28;19913;-62
2021/03/07 03:25:51;;;;;;;30.63;18.77;;;77.00;1638.40;;;;;;4993480;28;21005;-62
2021/03/07 03:28:21;;;;;;;33.88;20.08;;;77.10;1638.40;;;;;;4994557;28;20034;-62
2021/03/07 03:30:47;;;;;;;33.97;18.98;;;77.10;1612.80;;;;;;4994330;28;20029;-62
2021/03/07 03:33:13;;;;;;;30.13;17.15;;;77.10;1612.80;;;;;;4994368;28;20030;-62
2021/03/07 03:35:39;;;;;;;30.98;18.00;;;77.20;1587.20;;;;;;5046126;28;20094;-62
2021/03/07 03:38:05;;;;;;;34.35;20.00;;;77.20;1587.20;;;;;;5096056;28;20054;-62
2021/03/07 03:40:32;;;;;;;37.13;19.75;;;77.20;1587.20;;;;;;5095676;28;20050;-62
2021/03/07 03:43:03;;;;;;;36.30;21.75;;;77.20;1587.20;;;;;;5095806;28;20016;-62
2021/03/07 03:45:32;;;;;;;33.28;19.67;;;77.20;1612.80;;;;;;5095658;28;20020;-63
2021/03/07 03:48:04;;;;;;;38.08;20.88;;;77.10;1612.80;;;;;;5095700;28;20027;-62
2021/03/07 03:50:31;;;;;;;35.35;19.77;;;77.20;1612.80;;;;;;5095735;28;20394;-62
2021/03/07 03:53:00;;;;;;;36.67;20.25;;;77.20;1612.80;;;;;;5095400;28;20035;-62
2021/03/07 03:55:28;;;;;;;31.15;19.83;;;77.10;1638.40;;;;;;5094044;28;20036;-62
2021/03/07 03:58:02;;;;;;;33.88;20.40;;;77.10;1638.40;;;;;;5095215;28;20062;-62
2021/03/07 04:00:28;;;;;;;33.38;19.75;;;77.00;1664.00;;;;;;5094772;28;20523;-63
2021/03/07 04:02:57;;;;;;;36.03;20.58;;;76.80;1689.60;;;;;;5094978;28;20020;-63
2021/03/07 04:05:26;;;;;;;32.42;19.73;;;52.00;1715.20;;;;;;5094592;28;20031;-62
2021/03/07 04:07:51;;;;;;;;;;;51.90;1740.80;;;;;;5095172;28;20024;-62
2021/03/07 04:10:19;;;;;;;38.38;20.40;;;51.80;1740.80;;;;;;5094482;28;20351;-63
2021/03/07 04:12:46;;;;;;;38.75;22.75;;;51.70;1766.40;;;;;;5094662;28;20063;-62
2021/03/07 04:15:13;;;;;;;42.03;22.73;;;51.60;1766.40;;;;;;5094661;28;20028;-62
2021/03/07 04:17:41;;;;;;;39.28;23.05;;;51.60;1792.00;;;;;;5093109;28;20040;-62
2021/03/07 04:20:07;;;;;;;44.60;23.75;;;51.60;1792.00;;;;;;5094770;28;20031;-63
2021/03/07 04:22:34;;;;;;;44.97;24.65;;;51.60;1792.00;;;;;;5075951;28;20382;-67
2021/03/07 04:25:00;;;;;;;42.13;23.13;;;51.50;1792.00;;;;;;5095057;28;20028;-62
2021/03/07 04:27:25;;;;;;;42.65;25.35;;;51.50;1792.00;;;;;;5094913;28;20020;-62
2021/03/07 04:29:51;;;;;;;42.08;24.90;;;51.50;1792.00;;;;;;5095100;28;20370;-62
2021/03/07 04:32:18;;;;;;;43.65;24.35;;;51.50;1817.60;;;;;;5094654;28;20024;-62
2021/03/07 04:34:45;;;;;;;46.38;23.52;;;51.50;1817.60;;;;;;5094561;28;20512;-62
2021/03/07 04:37:11;;;;;;;40.10;23.63;;;51.50;1817.60;;;;;;5094631;28;20474;-62
2021/03/07 04:39:37;;;;;;;39.78;23.13;;;51.40;1817.60;;;;;;5094603;28;20113;-62
2021/03/07 04:42:05;;;;;;;38.35;21.85;;;51.40;1817.60;;;;;;5095039;28;20032;-62
2021/03/07 04:44:31;;;;;;;36.80;20.60;;;51.40;1792.00;;;;;;5094316;28;20069;-62
2021/03/07 04:46:57;;;;;;;44.20;21.05;;;51.40;1792.00;;;;;;5094896;28;20028;-62
2021/03/07 04:49:23;;;;;;;41.05;20.25;;;51.30;1792.00;;;;;;5094339;28;20474;-64
2021/03/07 04:51:50;;;;;;;37.38;21.92;;;51.30;1817.60;;;;;;5094719;28;20034;-63
2021/03/07 04:54:16;;;;;;;40.25;23.17;;;51.30;1843.20;;;;;;5092778;28;20048;-63
2021/03/07 04:56:41;;;;;;;45.45;24.58;;;51.30;1894.40;;;;;;5075714;28;20042;-62
2021/03/07 04:59:08;;;;;;;48.90;24.67;;;51.20;1920.00;;;;;;5093585;28;20467;-63
2021/03/07 05:01:35;;;;;;;45.67;25.90;;;51.20;1971.20;;;;;;5093888;28;20027;-62
2021/03/07 05:04:02;;;;;;;46.67;24.85;;;51.20;1971.20;;;;;;5093379;28;20489;-63
2021/03/07 05:06:28;;;;;;;47.38;25.75;;;51.30;1971.20;;;;;;5093678;28;20073;-64
2021/03/07 05:08:53;;;;;;;51.78;26.83;;;51.40;1996.80;;;;;;5093558;28;20417;-63
2021/03/07 05:11:22;;;;;;;50.90;28.67;;;51.30;2022.40;;;;;;5093820;28;20100;-63
2021/03/07 05:13:49;;;;;;;57.83;31.75;;;51.30;2073.60;;;;;;5093422;28;20119;-62
2021/03/07 05:16:20;;;;;;;54.45;31.33;;;51.30;2099.20;;;;;;5093443;28;20032;-62
2021/03/07 05:18:47;;;;;;;59.33;29.77;;;51.30;2150.40;;;;;;5093442;28;20031;-63
2021/03/07 05:21:12;;;;;;;58.20;31.58;;;51.30;2201.60;;;;;;5093320;28;20027;-64
2021/03/07 05:23:38;;;;;;;55.80;31.15;;;51.30;2227.20;;;;;;5093470;28;20032;-64
2021/03/07 05:26:05;;;;;;;49.72;29.17;;;51.40;2227.20;;;;;;5093800;28;20032;-63
2021/03/07 05:28:30;;;;;;;49.28;26.83;;;51.30;2227.20;;;;;;5093014;28;20020;-64
2021/03/07 05:30:56;;;;;;;52.38;26.88;;;51.40;2201.60;;;;;;5093141;28;20383;-62
2021/03/07 05:33:22;;;;;;;45.83;25.52;;;51.40;2176.00;;;;;;5093051;28;20032;-62
2021/03/07 05:35:48;;;;;;;42.00;24.88;;;51.50;2176.00;;;;;;5093060;28;20075;-63
2021/03/07 05:38:14;;;;;;;48.97;26.23;;;51.50;2176.00;;;;;;5093620;28;20035;-63
2021/03/07 05:40:41;;;;;;;46.65;26.92;;;51.60;2150.40;;;;;;5093533;28;20032;-65
2021/03/07 05:43:07;;;;;;;45.38;25.98;;;51.50;2201.60;;;;;;5092975;28;20020;-63
2021/03/07 05:45:34;;;;;;;44.25;27.17;;;51.50;2176.00;;;;;;5093457;28;20071;-65
2021/03/07 05:48:00;;;;;;;48.63;27.42;;;51.60;2176.00;;;;;;5093002;28;20028;-63
2021/03/07 05:50:26;;;;;;;48.30;27.92;;;51.70;2176.00;;;;;;5092547;28;20521;-63
2021/03/07 05:52:57;;;;;;;46.97;26.52;;;51.80;2150.40;;;;;;5092125;28;20028;-64
2021/03/07 05:55:25;;;;;;;46.28;26.75;;;51.80;2150.40;;;;;;5091916;28;20131;-62
2021/03/07 05:57:51;;;;;;;47.95;28.02;;;51.80;2150.40;;;;;;5092866;28;20059;-63
2021/03/07 06:00:19;;;;;;;50.20;30.00;;;51.80;2176.00;;;;;;5092153;28;20055;-63
2021/03/07 06:02:45;;;;;;;51.57;30.70;;;51.90;2176.00;;;;;;5092779;28;20028;-63
2021/03/07 06:05:12;;;;;;;51.78;30.20;;;51.90;2201.60;;;;;;5092267;28;20031;-63
2021/03/07 06:07:39;;;;;;;52.13;32.67;;;52.00;2201.60;;;;;;5092619;28;20024;-70
2021/03/07 06:10:12;;;;;;;50.13;30.20;;;76.80;2176.00;;;;;;5092269;28;20028;-63
2021/03/07 06:12:39;;;;;;;49.60;28.88;;;52.10;2176.00;;;;;;5079466;28;20028;-63
2021/03/07 06:15:07;;;;;;;42.33;28.25;;;76.90;2150.40;;;;;;5092465;28;20084;-62
2021/03/07 06:17:39;;;;;;;54.10;29.85;;;76.80;2150.40;;;;;;5092534;28;20470;-63
2021/03/07 06:20:07;;;;;;;50.42;29.73;;;77.00;2150.40;;;;;;5091898;28;20028;-62
2021/03/07 06:22:35;;;;;;;46.25;28.33;;;77.00;2124.80;;;;;;5092240;28;20023;-64
2021/03/07 06:25:04;;;;;;;51.45;32.35;;;77.10;2124.80;;;;;;5092486;28;20428;-64
2021/03/07 06:27:30;;;;;;;53.13;31.67;;;77.20;2124.80;;;;;;5092329;28;20024;-64
2021/03/07 06:30:01;;;;;;;50.25;29.98;;;77.30;2099.20;;;;;;5091885;28;20016;-64
2021/03/07 06:32:33;;;;;;;60.67;34.95;;;77.30;2073.60;;;;;;5093120;28;20054;-63
2021/03/07 06:34:59;;;;;;;59.47;35.50;;;77.30;2099.20;;;;;;5092170;28;20032;-65
2021/03/07 06:37:25;;;;;;;56.22;33.53;;;77.30;2099.20;;;;;;5092799;28;20106;-62
2021/03/07 06:39:52;;;;;;;56.30;33.75;;;77.40;2099.20;;;;;;5091725;28;20020;-61
2021/03/07 06:42:18;;;;;;;49.40;30.77;;;77.40;2073.60;;;;;;5093155;28;20422;-63
2021/03/07 06:45:13;;;;;;;51.25;31.17;;;77.60;2022.40;;;;;;5092551;28;20034;-63
2021/03/07 06:47:52;;;;;;;54.13;31.00;;;102.40;1996.80;;;;;;4991025;28;20113;-62
2021/03/07 06:50:18;;;;;;;;;;;102.50;1945.60;;;;;;4985390;28;20041;-63
2021/03/07 06:52:52;;;;;;;53.35;30.88;;;102.60;1920.00;;;;;;4981754;28;19913;-62
2021/03/07 06:55:19;;;;;;;56.45;33.70;;;102.60;1945.60;;;;;;4990175;28;20189;-62
2021/03/07 06:57:45;;;;;;;57.13;34.55;;;102.60;1920.00;;;;;;4990747;28;20555;-62
2021/03/07 07:00:12;;;;;;;60.70;34.50;;;102.60;1945.60;;;;;;4972702;28;20394;-66
2021/03/07 07:02:38;;;;;;;55.00;33.13;;;102.70;1920.00;;;;;;4989589;28;20018;-62
2021/03/07 07:05:04;;;;;;;55.40;34.50;;;102.80;1920.00;;;;;;4989385;28;20114;-62
2021/03/07 07:07:30;;;;;;;51.25;32.90;;;102.80;1894.40;;;;;;4990198;28;20073;-63
2021/03/07 07:09:58;;;;;;;57.63;33.17;;;102.90;1868.80;;;;;;4989274;28;20138;-62
2021/03/07 07:12:26;;;;;;;60.53;34.50;;;103.00;1868.80;;;;;;4989776;28;20034;-63
2021/03/07 07:15:13;;;;;;;62.55;34.25;;;103.00;1843.20;;;;;;4989760;28;20110;-63
2021/03/07 07:17:39;;;;;;;51.10;31.67;;;103.10;1843.20;;;;;;4988055;28;20046;-62
2021/03/07 07:20:08;;;;;;;51.47;31.13;;;103.20;1792.00;;;;;;4989683;28;20049;-63
2021/03/07 07:22:34;;;;;;;57.42;33.33;;;103.30;1740.80;;;;;;4988826;28;20034;-67
2021/03/07 07:25:01;;;;;;;54.90;32.65;;;103.20;1766.40;;;;;;5080095;28;20056;-63
2021/03/07 07:27:27;;;;;;;57.53;33.15;;;103.20;1792.00;;;;;;5091743;28;20051;-65
2021/03/07 07:29:53;;;;;;;54.42;32.67;;;128.00;1792.00;;;;;;5085854;28;20024;-63
2021/03/07 07:32:29;;;;;;;55.33;33.72;;;103.30;1766.40;;;;;;5082269;28;20096;-67
2021/03/07 07:34:59;;;;;;;55.28;33.90;;;128.20;1766.40;;;;;;5083032;28;20032;-68
2021/03/07 07:37:29;;;;;;;60.10;34.92;;;128.20;1817.60;;;;;;5082709;28;20475;-62
2021/03/07 07:39:56;;;;;;;59.47;33.80;;;128.20;1817.60;;;;;;5086376;28;20016;-63
2021/03/07 07:42:32;;;;;;;66.43;34.53;;;128.50;1766.40;;;;;;5091222;28;20497;-64
2021/03/07 07:45:16;;;;;;;55.53;31.52;;;128.50;1740.80;;;;;;5089314;28;20058;-63
2021/03/07 07:47:46;;;;;;;48.60;28.00;;;128.60;1689.60;;;;;;5091607;28;20081;-63
2021/03/07 07:50:28;;;;;;;121.75;68.88;;;128.60;1638.40;;;;;;5088605;28;20055;-66
2021/03/07 07:52:54;;;;;;;59.78;36.95;;;128.70;1638.40;;;;;;5092095;28;20043;-63
2021/03/07 07:55:39;;;;;;;58.75;36.58;;;128.80;1587.20;;;;;;5093468;28;20063;-63
2021/03/07 07:58:05;;;;;;;64.60;44.70;;;153.60;1536.00;;;;;;5093565;28;20493;-63
2021/03/07 08:01:11;;;;;;;74.10;52.22;;;153.70;1510.40;;;;;;5094619;28;20047;-63
2021/03/07 08:03:38;;;;;;;62.42;46.72;;;153.70;1484.80;;;;;;5012191;28;20036;-63
2021/03/07 08:06:06;;;;;;;58.35;43.97;;;153.70;1484.80;;;;;;5012297;28;20029;-64
2021/03/07 08:08:39;;;;;;;35.10;23.58;;;153.70;1459.20;;;;;;5012519;28;20041;-62
2021/03/07 08:11:06;;;;;;;26.10;16.48;;;154.00;1408.00;;;;;;5011831;28;20018;-64
2021/03/07 08:13:34;;;;;;;30.17;19.63;;;153.90;1305.60;;;;;;5012653;28;20417;-64
2021/03/07 08:16:04;;;;;;;23.48;15.57;;;154.20;1305.60;;;;;;5013414;28;20404;-63
2021/03/07 08:18:45;;;;;;;26.83;15.45;;;154.30;1228.80;;;;;;5007550;28;20531;-62
2021/03/07 08:21:11;;;;;;;21.02;14.10;;;154.50;1203.20;;;;;;4996934;28;20077;-63
2021/03/07 08:23:58;;;;;;;24.73;15.23;;;154.40;1152.00;;;;;;5013039;28;20040;-65
2021/03/07 08:26:48;;;;;;;29.90;18.17;;;179.20;1177.60;;;;;;5013195;28;20042;-64
2021/03/07 08:29:38;;;;;;;33.88;21.00;;;179.30;1203.20;;;;;;5012559;28;20030;-63
2021/03/07 08:32:30;;;;;;;28.38;18.15;;;179.30;1152.00;;;;;;5013188;28;20033;-63
2021/03/07 08:35:01;;;;;;;22.77;15.45;;;179.20;1152.00;;;;;;5012832;28;20084;-64
2021/03/07 08:37:30;;;;;;;21.27;15.50;;;179.30;1152.00;;;;;;5013121;28;20026;-69
2021/03/07 08:40:31;;;;;;;23.00;13.35;;;179.40;1177.60;;;;;;5057595;28;20032;-69
2021/03/07 08:43:18;;;;;;;19.67;12.38;;;179.40;1152.00;;;;;;5093215;28;20448;-64
2021/03/07 08:46:10;;;;;;;18.15;11.48;;;179.60;1126.40;;;;;;5093878;28;20032;-63
2021/03/07 08:48:47;;;;;;;17.42;10.77;;;179.60;1126.40;;;;;;5083019;28;20098;-65
2021/03/07 08:51:16;;;;;;;18.98;10.65;;;179.90;1126.40;;;;;;5093689;28;20024;-66
2021/03/07 08:53:44;;;;;;;13.80;9.25;;;179.90;1075.20;;;;;;5093531;28;20055;-63
2021/03/07 08:56:11;;;;;;;12.18;7.80;;;179.90;998.40;;;;;;5093974;28;20031;-66
2021/03/07 08:58:38;;;;;;;23.35;18.25;;;179.90;947.20;;;;;;5093679;28;20026;-62
2021/03/07 09:01:06;;;;;;;11.93;7.82;;;179.90;972.80;;;;;;5089378;28;20028;-69
2021/03/07 09:03:32;;;;;;;13.77;8.10;;;179.90;972.80;;;;;;5092897;28;20016;-69
2021/03/07 09:05:58;;;;;;;9.07;7.13;;;179.90;998.40;;;;;;5092827;28;20366;-64
2021/03/07 09:08:27;;;;;;;9.93;6.38;;;180.00;947.20;;;;;;5093392;28;20493;-64
2021/03/07 09:10:59;;;;;;;14.93;7.72;;;180.00;947.20;;;;;;5092921;28;20052;-63
2021/03/07 09:13:28;;;;;;;12.18;7.43;;;204.80;947.20;;;;;;5093462;28;20469;-68
2021/03/07 09:16:02;;;;;;;10.55;7.07;;;204.80;947.20;;;;;;5092955;28;20093;-63
2021/03/07 09:18:31;;;;;;;18.65;9.98;;;180.10;947.20;;;;;;5072977;28;20036;-65
2021/03/07 09:21:05;;;;;;;13.68;9.18;;;180.10;947.20;;;;;;5092957;28;20488;-64
2021/03/07 09:23:37;;;;;;;13.63;7.60;;;204.90;947.20;;;;;;5087644;28;20036;-64
2021/03/07 09:26:04;;;;;;;16.83;11.52;;;205.10;896.00;;;;;;5093438;28;20028;-63
2021/03/07 09:28:39;;;;;;;11.60;7.53;;;205.00;896.00;;;;;;5093228;28;20107;-65
2021/03/07 09:31:10;;;;;;;13.77;9.13;;;205.00;921.60;;;;;;5093110;28;20027;-64
2021/03/07 09:33:36;;;;;;;14.48;9.48;;;204.90;896.00;;;;;;5093778;28;20402;-66
2021/03/07 09:36:03;;;;;;;11.60;7.97;;;204.90;921.60;;;;;;5093040;28;20131;-63
2021/03/07 09:39:09;;;;;;;12.13;7.18;;;204.90;921.60;;;;;;5093143;28;20494;-64
2021/03/07 09:41:47;;;;;;;13.38;7.00;;;205.10;921.60;;;;;;4991023;28;20023;-63
2021/03/07 09:44:24;;;;;;;11.85;7.88;;;205.30;844.80;;;;;;4991117;28;20030;-62
2021/03/07 09:46:53;;;;;;;12.50;7.80;;;205.30;844.80;;;;;;4991581;28;20026;-66
2021/03/07 09:49:22;;;;;;;15.77;11.70;;;205.40;870.40;;;;;;4991458;28;20027;-63
2021/03/07 09:51:49;;;;;;;13.90;8.45;;;205.40;896.00;;;;;;4991060;28;20113;-66
2021/03/07 09:54:16;;;;;;;13.70;8.80;;;205.50;896.00;;;;;;4992783;28;20046;-62
2021/03/07 09:56:43;;;;;;;14.73;9.45;;;205.50;896.00;;;;;;4994342;28;20441;-65
2021/03/07 09:59:14;;;;;;;18.23;10.05;;;205.50;921.60;;;;;;4978597;28;20030;-65
2021/03/07 10:01:53;;;;;;;15.15;9.50;;;205.60;870.40;;;;;;4977593;28;20401;-63
2021/03/07 10:04:27;;;;;;;17.42;9.70;;;205.60;870.40;;;;;;4994861;28;20033;-67
2021/03/07 10:06:53;;;;;;;13.40;8.73;;;205.70;896.00;;;;;;4995852;28;20034;-63
2021/03/07 10:09:19;;;;;;;15.20;8.90;;;205.60;870.40;;;;;;4994636;28;20040;-63
2021/03/07 10:12:00;;;;;;;14.27;9.23;;;205.50;870.40;;;;;;5021464;28;20036;-65
2021/03/07 10:14:27;;;;;;;15.50;9.43;;;205.60;844.80;;;;;;5082500;28;20099;-65
2021/03/07 10:16:54;;;;;;;16.02;9.35;;;205.30;896.00;;;;;;5093594;28;20034;-61
2021/03/07 10:19:20;;;;;;;17.17;9.75;;;205.50;896.00;;;;;;5095507;28;20044;-63
2021/03/07 10:21:46;;;;;;;14.80;9.48;;;205.50;921.60;;;;;;5092641;28;20373;-61
2021/03/07 10:24:15;;;;;;;14.50;9.60;;;205.60;896.00;;;;;;5092904;28;20121;-62
2021/03/07 10:26:43;;;;;;;18.75;10.30;;;205.50;896.00;;;;;;5091671;28;20032;-61
2021/03/07 10:29:22;;;;;;;17.48;11.15;;;205.50;921.60;;;;;;5092912;28;20051;-61
2021/03/07 10:32:00;;;;;;;18.30;10.98;;;205.60;921.60;;;;;;5093103;28;20023;-61
2021/03/07 10:34:47;;;;;;;15.20;10.07;;;;;;;;;;5092590;28;20028;-61
2021/03/07 10:37:34;;;;;;;17.58;10.65;;;230.60;896.00;;;;;;5092469;28;20044;-61
2021/03/07 10:40:00;;;;;;;21.10;11.25;;;230.60;896.00;;;;;;5092881;28;20024;-61
2021/03/07 10:42:37;;;;;;;12.98;8.77;;;230.50;870.40;;;;;;5074882;28;20531;-62
2021/03/07 10:45:22;;;;;;;16.10;10.20;;;230.70;870.40;;;;;;5070708;28;20102;-62
2021/03/07 10:48:12;;;;;;;17.67;10.70;;;230.60;870.40;;;;;;5091616;28;20401;-63
2021/03/07 10:50:43;;;;;;;16.58;9.75;;;230.80;870.40;;;;;;5092029;28;20389;-62
2021/03/07 10:53:09;;;;;;;15.07;9.50;;;230.80;921.60;;;;;;5092221;28;20024;-63
2021/03/07 10:55:35;;;;;;;14.35;8.85;;;230.80;896.00;;;;;;5090650;28;20036;-65
2021/03/07 10:58:01;;;;;;;10.02;7.63;;;230.90;870.40;;;;;;5091630;28;20047;-63
2021/03/07 11:00:27;;;;;;;11.60;7.45;;;230.90;819.20;;;;;;5091623;28;20369;-62
2021/03/07 11:02:53;;;;;;;10.45;7.55;;;230.90;819.20;;;;;;5091193;28;20386;-62
2021/03/07 11:05:20;;;;;;;11.30;8.27;;;230.90;793.60;;;;;;5092368;28;20027;-61
2021/03/07 11:07:46;;;;;;;11.32;7.25;;;231.10;768.00;;;;;;5091554;28;20099;-61
2021/03/07 11:10:15;;;;;;;13.15;8.10;;;231.10;793.60;;;;;;5091610;28;20028;-61
2021/03/07 11:12:41;;;;;;;12.35;8.30;;;231.10;768.00;;;;;;5091829;28;20021;-61
2021/03/07 11:15:09;;;;;;;14.68;9.52;;;231.10;768.00;;;;;;5091695;28;20040;-62
2021/03/07 11:17:37;;;;;;;14.15;9.48;;;231.20;768.00;;;;;;5091529;28;20542;-61
2021/03/07 11:20:08;;;;;;;12.13;8.25;;;231.20;793.60;;;;;;5091701;28;20594;-61
2021/03/07 11:22:44;;;;;;;;;;;;;;;;;;;;;
2021/03/07 11:25:11;;;;;;;9.63;7.18;;;231.20;768.00;;;;;;5090776;28;20024;-63
2021/03/07 11:27:42;;;;;;;11.57;8.07;;;231.20;742.40;;;;;;5094292;28;20545;-64
2021/03/07 11:30:08;;;;;;;10.38;8.35;;;231.10;793.60;;;;;;5095359;28;20016;-62
2021/03/07 11:32:34;;;;;;;10.65;7.57;;;231.20;793.60;;;;;;5095103;28;20118;-63
2021/03/07 11:35:00;;;;;;;12.85;8.20;;;256.00;768.00;;;;;;5095040;28;20116;-59
2021/03/07 11:37:25;;;;;;;10.45;6.97;;;256.00;768.00;;;;;;5095375;28;20389;-61
2021/03/07 11:39:53;;;;;;;11.02;7.13;;;256.20;768.00;;;;;;5096088;28;20438;-62
2021/03/07 11:42:19;;;;;;;10.98;7.45;;;256.20;742.40;;;;;;5095949;28;20020;-62
2021/03/07 11:44:45;;;;;;;10.30;7.18;;;256.20;768.00;;;;;;5092793;28;20070;-62
2021/03/07 11:47:10;;;;;;;13.18;8.50;;;256.50;768.00;;;;;;5086206;28;20023;-62
2021/03/07 11:49:38;;;;;;;12.32;9.27;;;256.60;768.00;;;;;;5084820;28;20061;-62
2021/03/07 11:52:06;;;;;;;16.17;10.15;;;256.80;768.00;;;;;;5074657;28;20033;-61
2021/03/07 11:54:32;;;;;;;12.77;9.20;;;281.60;793.60;;;;;;5074704;28;20045;-63
2021/03/07 11:56:58;;;;;;;12.48;8.60;;;281.80;768.00;;;;;;5092404;28;20272;-62
2021/03/07 11:59:24;;;;;;;16.33;9.38;;;;;;;;;;5094400;28;20115;-62
2021/03/07 12:01:52;;;;;;;12.70;8.88;;;282.10;768.00;;;;;;5086813;28;20077;-61
2021/03/07 12:04:17;;;;;;;12.77;8.23;;;282.20;947.20;;;;;;5084049;28;20151;-61
2021/03/07 12:06:43;;;;;;;15.05;8.85;;;282.30;742.40;;;;;;5084692;28;20273;-60
2021/03/07 12:09:09;;;;;;;14.38;9.55;;;282.30;716.80;;;;;;5073441;28;20047;-63
2021/03/07 12:11:35;;;;;;;11.27;7.90;;;282.10;716.80;;;;;;5089995;28;20377;-62
2021/03/07 12:14:00;;;;;;;12.93;7.88;;;282.20;742.40;;;;;;5093020;28;20024;-62
2021/03/07 12:16:26;;;;;;;12.77;8.35;;;282.20;742.40;;;;;;5093556;28;20047;-62
2021/03/07 12:18:54;;;;;;;13.18;9.20;;;282.40;716.80;;;;;;5071939;28;20508;-63
2021/03/07 12:21:22;;;;;;;14.20;8.30;;;282.40;716.80;;;;;;5090984;28;20032;-59